sensor_id;sensor_type;location;lat;lon;timestamp;pressure;altitude;pressure_sealevel;temperature
62930;BMP280;49036;42.782;23.108;2023-06-19T00:00:44;94068.53;;;14.95
62930;BMP280;49036;42.782;23.108;2023-06-19T00:03:10;94070.72;;;14.97
62930;BMP280;49036;42.782;23.108;2023-06-19T00:05:35;94072.25;;;15.00
62930;BMP280;49036;42.782;23.108;2023-06-19T00:08:01;94064.63;;;15.01
62930;BMP280;49036;42.782;23.108;2023-06-19T00:10:28;94065.22;;;14.99
62930;BMP280;49036;42.782;23.108;2023-06-19T00:12:54;94052.84;;;15.02
62930;BMP280;49036;42.782;23.108;2023-06-19T00:15:19;94056.44;;;15.05
62930;BMP280;49036;42.782;23.108;2023-06-19T00:17:45;94053.44;;;15.01
62930;BMP280;49036;42.782;23.108;2023-06-19T00:20:10;94053.53;;;15.03
62930;BMP280;49036;42.782;23.108;2023-06-19T00:22:38;94053.84;;;15.09
62930;BMP280;49036;42.782;23.108;2023-06-19T00:25:04;94049.63;;;15.08
62930;BMP280;49036;42.782;23.108;2023-06-19T00:27:30;94045.06;;;15.01
62930;BMP280;49036;42.782;23.108;2023-06-19T00:29:55;94052.19;;;15.04
62930;BMP280;49036;42.782;23.108;2023-06-19T00:32:29;94048.59;;;15.01
62930;BMP280;49036;42.782;23.108;2023-06-19T00:34:55;94043.72;;;15.02
62930;BMP280;49036;42.782;23.108;2023-06-19T00:37:21;94047.25;;;15.02
62930;BMP280;49036;42.782;23.108;2023-06-19T00:39:47;94047.94;;;15.03
62930;BMP280;49036;42.782;23.108;2023-06-19T00:42:12;94049.19;;;15.00
62930;BMP280;49036;42.782;23.108;2023-06-19T00:44:38;94042.06;;;15.10
62930;BMP280;49036;42.782;23.108;2023-06-19T00:47:04;94044.22;;;15.12
62930;BMP280;49036;42.782;23.108;2023-06-19T00:49:30;94044.22;;;15.12
62930;BMP280;49036;42.782;23.108;2023-06-19T00:51:57;94037.81;;;15.09
62930;BMP280;49036;42.782;23.108;2023-06-19T00:54:22;94038.72;;;15.00
62930;BMP280;49036;42.782;23.108;2023-06-19T00:56:48;94029.28;;;14.93
62930;BMP280;49036;42.782;23.108;2023-06-19T00:59:17;94036.47;;;14.97
62930;BMP280;49036;42.782;23.108;2023-06-19T01:01:43;94038.28;;;14.92
62930;BMP280;49036;42.782;23.108;2023-06-19T01:04:09;94040.28;;;14.89
62930;BMP280;49036;42.782;23.108;2023-06-19T01:06:42;94046.25;;;14.84
62930;BMP280;49036;42.782;23.108;2023-06-19T01:09:11;94033.09;;;14.86
62930;BMP280;49036;42.782;23.108;2023-06-19T01:11:48;94042.41;;;14.77
62930;BMP280;49036;42.782;23.108;2023-06-19T01:14:20;94033.69;;;14.57
62930;BMP280;49036;42.782;23.108;2023-06-19T01:16:46;94038.50;;;14.43
62930;BMP280;49036;42.782;23.108;2023-06-19T01:19:16;94029.22;;;14.27
62930;BMP280;49036;42.782;23.108;2023-06-19T01:21:43;94037.94;;;14.08
62930;BMP280;49036;42.782;23.108;2023-06-19T01:24:09;94027.31;;;13.92
62930;BMP280;49036;42.782;23.108;2023-06-19T01:26:35;94025.66;;;13.76
62930;BMP280;49036;42.782;23.108;2023-06-19T01:29:00;94033.47;;;13.54
62930;BMP280;49036;42.782;23.108;2023-06-19T01:31:41;94026.22;;;13.37
62930;BMP280;49036;42.782;23.108;2023-06-19T01:34:08;94034.56;;;13.25
62930;BMP280;49036;42.782;23.108;2023-06-19T01:36:35;94040.13;;;13.14
62930;BMP280;49036;42.782;23.108;2023-06-19T01:39:01;94034.47;;;13.00
62930;BMP280;49036;42.782;23.108;2023-06-19T01:41:28;94037.22;;;12.88
62930;BMP280;49036;42.782;23.108;2023-06-19T01:43:56;94035.63;;;12.74
62930;BMP280;49036;42.782;23.108;2023-06-19T01:46:22;94031.38;;;12.61
62930;BMP280;49036;42.782;23.108;2023-06-19T01:48:47;94034.84;;;12.50
62930;BMP280;49036;42.782;23.108;2023-06-19T01:51:13;94033.38;;;12.37
62930;BMP280;49036;42.782;23.108;2023-06-19T01:53:39;94040.81;;;12.23
62930;BMP280;49036;42.782;23.108;2023-06-19T01:56:04;94044.81;;;12.20
62930;BMP280;49036;42.782;23.108;2023-06-19T01:58:30;94045.06;;;12.24
62930;BMP280;49036;42.782;23.108;2023-06-19T02:00:56;94031.91;;;12.36
62930;BMP280;49036;42.782;23.108;2023-06-19T02:03:21;94031.81;;;12.46
62930;BMP280;49036;42.782;23.108;2023-06-19T02:05:47;94030.75;;;12.51
62930;BMP280;49036;42.782;23.108;2023-06-19T02:08:12;94029.41;;;12.52
62930;BMP280;49036;42.782;23.108;2023-06-19T02:10:38;94040.34;;;12.59
62930;BMP280;49036;42.782;23.108;2023-06-19T02:13:03;94040.22;;;12.57
62930;BMP280;49036;42.782;23.108;2023-06-19T02:15:29;94042.59;;;12.51
62930;BMP280;49036;42.782;23.108;2023-06-19T02:17:59;94044.66;;;12.51
62930;BMP280;49036;42.782;23.108;2023-06-19T02:20:25;94047.91;;;12.47
62930;BMP280;49036;42.782;23.108;2023-06-19T02:22:51;94042.97;;;12.46
62930;BMP280;49036;42.782;23.108;2023-06-19T02:25:16;94045.75;;;12.46
62930;BMP280;49036;42.782;23.108;2023-06-19T02:27:42;94037.22;;;12.44
62930;BMP280;49036;42.782;23.108;2023-06-19T02:30:08;94043.31;;;12.40
62930;BMP280;49036;42.782;23.108;2023-06-19T02:32:34;94047.88;;;12.36
62930;BMP280;49036;42.782;23.108;2023-06-19T02:34:59;94057.44;;;12.32
62930;BMP280;49036;42.782;23.108;2023-06-19T02:37:26;94053.41;;;12.24
62930;BMP280;49036;42.782;23.108;2023-06-19T02:39:51;94055.81;;;12.18
62930;BMP280;49036;42.782;23.108;2023-06-19T02:42:17;94055.41;;;12.12
62930;BMP280;49036;42.782;23.108;2023-06-19T02:44:42;94058.19;;;12.12
62930;BMP280;49036;42.782;23.108;2023-06-19T02:47:08;94063.03;;;12.11
62930;BMP280;49036;42.782;23.108;2023-06-19T02:49:34;94058.78;;;12.10
62930;BMP280;49036;42.782;23.108;2023-06-19T02:51:59;94066.28;;;12.08
62930;BMP280;49036;42.782;23.108;2023-06-19T02:54:25;94071.59;;;12.04
62930;BMP280;49036;42.782;23.108;2023-06-19T02:56:51;94069.09;;;11.98
62930;BMP280;49036;42.782;23.108;2023-06-19T02:59:16;94068.72;;;11.92
62930;BMP280;49036;42.782;23.108;2023-06-19T03:01:42;94079.59;;;11.88
62930;BMP280;49036;42.782;23.108;2023-06-19T03:04:07;94072.91;;;11.81
62930;BMP280;49036;42.782;23.108;2023-06-19T03:06:32;94074.06;;;11.78
62930;BMP280;49036;42.782;23.108;2023-06-19T03:09:06;94078.81;;;11.76
62930;BMP280;49036;42.782;23.108;2023-06-19T03:11:40;94073.84;;;11.74
62930;BMP280;49036;42.782;23.108;2023-06-19T03:14:06;94069.94;;;11.68
62930;BMP280;49036;42.782;23.108;2023-06-19T03:16:33;94069.03;;;11.65
62930;BMP280;49036;42.782;23.108;2023-06-19T03:18:59;94072.34;;;11.73
62930;BMP280;49036;42.782;23.108;2023-06-19T03:21:25;94071.25;;;11.88
62930;BMP280;49036;42.782;23.108;2023-06-19T03:23:51;94065.88;;;12.02
62930;BMP280;49036;42.782;23.108;2023-06-19T03:26:18;94068.38;;;12.19
62930;BMP280;49036;42.782;23.108;2023-06-19T03:28:44;94065.91;;;12.35
62930;BMP280;49036;42.782;23.108;2023-06-19T03:31:09;94067.41;;;12.47
62930;BMP280;49036;42.782;23.108;2023-06-19T03:33:35;94060.19;;;12.66
62930;BMP280;49036;42.782;23.108;2023-06-19T03:36:00;94063.38;;;12.72
62930;BMP280;49036;42.782;23.108;2023-06-19T03:38:26;94065.22;;;12.90
62930;BMP280;49036;42.782;23.108;2023-06-19T03:40:52;94056.13;;;13.13
62930;BMP280;49036;42.782;23.108;2023-06-19T03:43:17;94058.94;;;13.37
62930;BMP280;49036;42.782;23.108;2023-06-19T03:45:43;94056.25;;;13.50
62930;BMP280;49036;42.782;23.108;2023-06-19T03:48:08;94065.44;;;13.65
62930;BMP280;49036;42.782;23.108;2023-06-19T03:50:34;94060.81;;;13.81
62930;BMP280;49036;42.782;23.108;2023-06-19T03:52:59;94064.31;;;13.93
62930;BMP280;49036;42.782;23.108;2023-06-19T03:55:25;94063.72;;;14.20
62930;BMP280;49036;42.782;23.108;2023-06-19T03:57:51;94066.00;;;14.49
62930;BMP280;49036;42.782;23.108;2023-06-19T04:00:18;94065.38;;;14.76
62930;BMP280;49036;42.782;23.108;2023-06-19T04:02:44;94070.09;;;14.99
62930;BMP280;49036;42.782;23.108;2023-06-19T04:05:12;94064.31;;;15.08
62930;BMP280;49036;42.782;23.108;2023-06-19T04:07:37;94062.47;;;15.26
62930;BMP280;49036;42.782;23.108;2023-06-19T04:10:03;94063.41;;;15.45
62930;BMP280;49036;42.782;23.108;2023-06-19T04:12:29;94069.00;;;15.58
62930;BMP280;49036;42.782;23.108;2023-06-19T04:14:54;94064.53;;;15.67
62930;BMP280;49036;42.782;23.108;2023-06-19T04:17:20;94065.31;;;15.83
62930;BMP280;49036;42.782;23.108;2023-06-19T04:19:45;94068.09;;;15.97
62930;BMP280;49036;42.782;23.108;2023-06-19T04:22:11;94064.16;;;16.02
62930;BMP280;49036;42.782;23.108;2023-06-19T04:24:36;94058.91;;;16.24
62930;BMP280;49036;42.782;23.108;2023-06-19T04:27:02;94063.34;;;16.29
62930;BMP280;49036;42.782;23.108;2023-06-19T04:29:27;94064.00;;;16.43
62930;BMP280;49036;42.782;23.108;2023-06-19T04:32:00;94064.41;;;16.51
62930;BMP280;49036;42.782;23.108;2023-06-19T04:34:28;94055.81;;;16.63
62930;BMP280;49036;42.782;23.108;2023-06-19T04:36:54;94057.13;;;16.76
62930;BMP280;49036;42.782;23.108;2023-06-19T04:39:24;94055.38;;;16.69
62930;BMP280;49036;42.782;23.108;2023-06-19T04:41:50;94051.13;;;16.83
62930;BMP280;49036;42.782;23.108;2023-06-19T04:44:15;94052.22;;;16.92
62930;BMP280;49036;42.782;23.108;2023-06-19T04:46:42;94051.97;;;16.86
62930;BMP280;49036;42.782;23.108;2023-06-19T04:49:09;94056.75;;;17.15
62930;BMP280;49036;42.782;23.108;2023-06-19T04:51:34;94057.81;;;17.23
62930;BMP280;49036;42.782;23.108;2023-06-19T04:54:00;94063.53;;;17.25
62930;BMP280;49036;42.782;23.108;2023-06-19T04:56:26;94059.06;;;17.36
62930;BMP280;49036;42.782;23.108;2023-06-19T04:59:12;94059.97;;;17.41
62930;BMP280;49036;42.782;23.108;2023-06-19T05:01:37;94055.09;;;17.41
62930;BMP280;49036;42.782;23.108;2023-06-19T05:04:05;94054.69;;;17.49
62930;BMP280;49036;42.782;23.108;2023-06-19T05:06:31;94062.28;;;17.62
62930;BMP280;49036;42.782;23.108;2023-06-19T05:08:56;94058.22;;;17.65
62930;BMP280;49036;42.782;23.108;2023-06-19T05:11:22;94058.06;;;17.79
62930;BMP280;49036;42.782;23.108;2023-06-19T05:13:48;94059.94;;;17.90
62930;BMP280;49036;42.782;23.108;2023-06-19T05:16:13;94064.59;;;17.83
62930;BMP280;49036;42.782;23.108;2023-06-19T05:18:42;94067.34;;;17.99
62930;BMP280;49036;42.782;23.108;2023-06-19T05:21:08;94068.75;;;18.00
62930;BMP280;49036;42.782;23.108;2023-06-19T05:23:34;94071.81;;;18.06
62930;BMP280;49036;42.782;23.108;2023-06-19T05:26:00;94076.78;;;18.08
62930;BMP280;49036;42.782;23.108;2023-06-19T05:28:25;94079.22;;;18.15
62930;BMP280;49036;42.782;23.108;2023-06-19T05:42:53;94085.16;;;18.96
62930;BMP280;49036;42.782;23.108;2023-06-19T05:45:20;94087.13;;;19.11
62930;BMP280;49036;42.782;23.108;2023-06-19T05:47:46;94083.72;;;19.15
62930;BMP280;49036;42.782;23.108;2023-06-19T05:50:11;94085.53;;;19.06
62930;BMP280;49036;42.782;23.108;2023-06-19T05:52:53;94088.34;;;19.06
62930;BMP280;49036;42.782;23.108;2023-06-19T05:55:18;94098.78;;;19.04
62930;BMP280;49036;42.782;23.108;2023-06-19T05:57:44;94089.25;;;18.93
62930;BMP280;49036;42.782;23.108;2023-06-19T06:00:10;94097.19;;;18.61
62930;BMP280;49036;42.782;23.108;2023-06-19T06:02:41;94088.75;;;18.61
62930;BMP280;49036;42.782;23.108;2023-06-19T06:05:07;94092.50;;;18.86
62930;BMP280;49036;42.782;23.108;2023-06-19T06:07:34;94091.03;;;18.85
62930;BMP280;49036;42.782;23.108;2023-06-19T06:10:00;94094.75;;;19.09
62930;BMP280;49036;42.782;23.108;2023-06-19T06:12:25;94099.53;;;19.24
62930;BMP280;49036;42.782;23.108;2023-06-19T06:14:51;94107.53;;;19.32
62930;BMP280;49036;42.782;23.108;2023-06-19T06:17:16;94099.03;;;19.30
62930;BMP280;49036;42.782;23.108;2023-06-19T06:21:33;94104.38;;;19.22
62930;BMP280;49036;42.782;23.108;2023-06-19T06:24:00;94101.25;;;19.33
62930;BMP280;49036;42.782;23.108;2023-06-19T06:26:25;94097.56;;;19.29
62930;BMP280;49036;42.782;23.108;2023-06-19T06:28:53;94107.03;;;19.37
62930;BMP280;49036;42.782;23.108;2023-06-19T06:31:19;94111.81;;;19.33
62930;BMP280;49036;42.782;23.108;2023-06-19T06:33:44;94112.00;;;19.19
62930;BMP280;49036;42.782;23.108;2023-06-19T06:36:10;94108.97;;;19.13
62930;BMP280;49036;42.782;23.108;2023-06-19T06:38:35;94104.63;;;19.10
62930;BMP280;49036;42.782;23.108;2023-06-19T06:41:01;94111.34;;;19.21
62930;BMP280;49036;42.782;23.108;2023-06-19T06:43:26;94108.84;;;19.29
62930;BMP280;49036;42.782;23.108;2023-06-19T06:45:52;94111.59;;;19.27
62930;BMP280;49036;42.782;23.108;2023-06-19T06:48:17;94111.34;;;19.40
62930;BMP280;49036;42.782;23.108;2023-06-19T06:50:43;94108.97;;;19.53
62930;BMP280;49036;42.782;23.108;2023-06-19T06:53:09;94119.59;;;19.54
62930;BMP280;49036;42.782;23.108;2023-06-19T06:55:35;94112.47;;;19.51
62930;BMP280;49036;42.782;23.108;2023-06-19T06:58:01;94119.59;;;19.54
62930;BMP280;49036;42.782;23.108;2023-06-19T07:00:26;94119.84;;;19.62
62930;BMP280;49036;42.782;23.108;2023-06-19T07:03:21;94113.56;;;19.83
62930;BMP280;49036;42.782;23.108;2023-06-19T07:05:49;94117.84;;;19.84
62930;BMP280;49036;42.782;23.108;2023-06-19T07:08:15;94113.84;;;19.92
62930;BMP280;49036;42.782;23.108;2023-06-19T07:10:40;94113.78;;;19.90
62930;BMP280;49036;42.782;23.108;2023-06-19T07:13:06;94116.19;;;19.99
62930;BMP280;49036;42.782;23.108;2023-06-19T07:15:31;94118.75;;;20.13
62930;BMP280;49036;42.782;23.108;2023-06-19T07:17:57;94118.53;;;20.07
62930;BMP280;49036;42.782;23.108;2023-06-19T07:20:22;94124.16;;;20.27
62930;BMP280;49036;42.782;23.108;2023-06-19T07:22:50;94121.66;;;20.37
62930;BMP280;49036;42.782;23.108;2023-06-19T07:25:16;94123.81;;;20.38
62930;BMP280;49036;42.782;23.108;2023-06-19T07:27:42;94128.25;;;20.45
62930;BMP280;49036;42.782;23.108;2023-06-19T07:30:08;94128.00;;;20.37
62930;BMP280;49036;42.782;23.108;2023-06-19T07:32:34;94124.72;;;20.45
62930;BMP280;49036;42.782;23.108;2023-06-19T07:34:59;94128.16;;;20.41
62930;BMP280;49036;42.782;23.108;2023-06-19T07:37:25;94128.72;;;20.38
62930;BMP280;49036;42.782;23.108;2023-06-19T07:39:51;94130.31;;;20.43
62930;BMP280;49036;42.782;23.108;2023-06-19T07:42:18;94129.28;;;20.56
62930;BMP280;49036;42.782;23.108;2023-06-19T07:44:44;94128.56;;;20.55
62930;BMP280;49036;42.782;23.108;2023-06-19T07:47:10;94129.25;;;20.54
62930;BMP280;49036;42.782;23.108;2023-06-19T07:49:36;94130.75;;;20.57
62930;BMP280;49036;42.782;23.108;2023-06-19T07:52:03;94132.09;;;20.78
62930;BMP280;49036;42.782;23.108;2023-06-19T07:54:28;94127.19;;;20.78
62930;BMP280;49036;42.782;23.108;2023-06-19T07:56:54;94124.09;;;20.70
62930;BMP280;49036;42.782;23.108;2023-06-19T08:00:08;94133.06;;;20.86
62930;BMP280;49036;42.782;23.108;2023-06-19T08:02:37;94131.78;;;20.91
62930;BMP280;49036;42.782;23.108;2023-06-19T08:05:02;94133.53;;;21.03
62930;BMP280;49036;42.782;23.108;2023-06-19T08:07:28;94124.03;;;21.16
62930;BMP280;49036;42.782;23.108;2023-06-19T08:09:53;94137.53;;;21.19
62930;BMP280;49036;42.782;23.108;2023-06-19T08:12:19;94139.22;;;21.28
62930;BMP280;49036;42.782;23.108;2023-06-19T08:15:30;94141.78;;;21.44
62930;BMP280;49036;42.782;23.108;2023-06-19T08:17:55;94131.75;;;21.39
62930;BMP280;49036;42.782;23.108;2023-06-19T08:20:21;94144.47;;;21.40
62930;BMP280;49036;42.782;23.108;2023-06-19T08:22:46;94129.22;;;21.49
62930;BMP280;49036;42.782;23.108;2023-06-19T08:25:39;94120.44;;;21.65
62930;BMP280;49036;42.782;23.108;2023-06-19T08:28:04;94118.16;;;21.59
62930;BMP280;49036;42.782;23.108;2023-06-19T08:30:30;94128.38;;;21.70
62930;BMP280;49036;42.782;23.108;2023-06-19T08:32:56;94130.53;;;21.72
62930;BMP280;49036;42.782;23.108;2023-06-19T08:35:21;94126.47;;;21.79
62930;BMP280;49036;42.782;23.108;2023-06-19T08:38:50;94117.31;;;22.08
62930;BMP280;49036;42.782;23.108;2023-06-19T08:41:18;94125.13;;;22.10
62930;BMP280;49036;42.782;23.108;2023-06-19T08:43:45;94118.75;;;22.10
62930;BMP280;49036;42.782;23.108;2023-06-19T08:46:51;94124.25;;;22.03
62930;BMP280;49036;42.782;23.108;2023-06-19T08:49:17;94123.38;;;21.97
62930;BMP280;49036;42.782;23.108;2023-06-19T08:52:40;94123.41;;;22.27
62930;BMP280;49036;42.782;23.108;2023-06-19T08:55:06;94125.81;;;22.38
62930;BMP280;49036;42.782;23.108;2023-06-19T08:57:38;94122.38;;;22.44
62930;BMP280;49036;42.782;23.108;2023-06-19T09:00:05;94124.88;;;22.60
62930;BMP280;49036;42.782;23.108;2023-06-19T09:02:43;94127.91;;;22.68
62930;BMP280;49036;42.782;23.108;2023-06-19T09:05:13;94130.00;;;22.67
62930;BMP280;49036;42.782;23.108;2023-06-19T09:07:39;94126.44;;;22.65
62930;BMP280;49036;42.782;23.108;2023-06-19T09:10:18;94129.25;;;22.97
62930;BMP280;49036;42.782;23.108;2023-06-19T09:13:57;94137.28;;;23.08
62930;BMP280;49036;42.782;23.108;2023-06-19T09:16:37;94132.03;;;23.31
62930;BMP280;49036;42.782;23.108;2023-06-19T09:19:03;94127.56;;;23.53
62930;BMP280;49036;42.782;23.108;2023-06-19T09:21:28;94124.91;;;23.66
62930;BMP280;49036;42.782;23.108;2023-06-19T09:23:54;94125.25;;;23.46
62930;BMP280;49036;42.782;23.108;2023-06-19T09:26:19;94119.47;;;23.76
62930;BMP280;49036;42.782;23.108;2023-06-19T09:28:45;94125.25;;;24.26
62930;BMP280;49036;42.782;23.108;2023-06-19T09:31:12;94131.31;;;24.50
62930;BMP280;49036;42.782;23.108;2023-06-19T09:33:39;94126.47;;;24.61
62930;BMP280;49036;42.782;23.108;2023-06-19T09:36:05;94124.72;;;24.37
62930;BMP280;49036;42.782;23.108;2023-06-19T09:38:38;94124.84;;;24.46
62930;BMP280;49036;42.782;23.108;2023-06-19T09:42:30;94122.63;;;24.92
62930;BMP280;49036;42.782;23.108;2023-06-19T09:45:00;94121.75;;;25.34
62930;BMP280;49036;42.782;23.108;2023-06-19T09:47:31;94128.41;;;25.61
62930;BMP280;49036;42.782;23.108;2023-06-19T09:49:56;94121.44;;;25.76
62930;BMP280;49036;42.782;23.108;2023-06-19T09:52:23;94118.84;;;26.02
62930;BMP280;49036;42.782;23.108;2023-06-19T09:54:53;94119.53;;;25.98
62930;BMP280;49036;42.782;23.108;2023-06-19T09:57:20;94122.31;;;25.92
62930;BMP280;49036;42.782;23.108;2023-06-19T09:59:55;94122.47;;;25.34
62930;BMP280;49036;42.782;23.108;2023-06-19T10:02:26;94114.03;;;26.27
62930;BMP280;49036;42.782;23.108;2023-06-19T10:04:56;94106.44;;;26.64
62930;BMP280;49036;42.782;23.108;2023-06-19T10:07:33;94105.16;;;26.87
62930;BMP280;49036;42.782;23.108;2023-06-19T10:10:03;94106.69;;;27.31
62930;BMP280;49036;42.782;23.108;2023-06-19T10:12:43;94113.13;;;27.25
62930;BMP280;49036;42.782;23.108;2023-06-19T10:15:09;94108.88;;;27.40
62930;BMP280;49036;42.782;23.108;2023-06-19T10:17:35;94108.25;;;27.82
62930;BMP280;49036;42.782;23.108;2023-06-19T10:20:01;94108.22;;;28.09
62930;BMP280;49036;42.782;23.108;2023-06-19T10:22:32;94097.53;;;28.11
62930;BMP280;49036;42.782;23.108;2023-06-19T10:26:02;94106.81;;;28.22
62930;BMP280;49036;42.782;23.108;2023-06-19T10:28:32;94102.53;;;27.84
62930;BMP280;49036;42.782;23.108;2023-06-19T10:32:07;94103.94;;;28.14
62930;BMP280;49036;42.782;23.108;2023-06-19T10:34:33;94099.66;;;28.15
62930;BMP280;49036;42.782;23.108;2023-06-19T10:36:59;94088.25;;;28.29
62930;BMP280;49036;42.782;23.108;2023-06-19T10:39:24;94083.25;;;28.21
62930;BMP280;49036;42.782;23.108;2023-06-19T10:41:50;94088.97;;;27.58
62930;BMP280;49036;42.782;23.108;2023-06-19T10:44:16;94093.25;;;27.74
62930;BMP280;49036;42.782;23.108;2023-06-19T10:47:01;94093.25;;;27.94
62930;BMP280;49036;42.782;23.108;2023-06-19T10:49:26;94088.25;;;28.35
62930;BMP280;49036;42.782;23.108;2023-06-19T10:51:52;94095.34;;;28.42
62930;BMP280;49036;42.782;23.108;2023-06-19T10:54:33;94086.66;;;28.80
62930;BMP280;49036;42.782;23.108;2023-06-19T10:56:58;94088.75;;;28.90
62930;BMP280;49036;42.782;23.108;2023-06-19T10:59:28;94086.59;;;28.90
62930;BMP280;49036;42.782;23.108;2023-06-19T11:01:54;94077.56;;;28.03
62930;BMP280;49036;42.782;23.108;2023-06-19T11:04:52;94082.28;;;29.04
62930;BMP280;49036;42.782;23.108;2023-06-19T11:07:18;94078.63;;;29.15
62930;BMP280;49036;42.782;23.108;2023-06-19T11:09:43;94086.13;;;29.71
62930;BMP280;49036;42.782;23.108;2023-06-19T11:12:09;94079.94;;;29.35
62930;BMP280;49036;42.782;23.108;2023-06-19T11:14:34;94072.91;;;29.15
62930;BMP280;49036;42.782;23.108;2023-06-19T11:17:05;94075.00;;;29.27
62930;BMP280;49036;42.782;23.108;2023-06-19T11:19:31;94072.47;;;29.80
62930;BMP280;49036;42.782;23.108;2023-06-19T11:21:59;94078.25;;;29.70
62930;BMP280;49036;42.782;23.108;2023-06-19T11:24:28;94068.06;;;30.60
62930;BMP280;49036;42.782;23.108;2023-06-19T11:26:56;94072.00;;;30.29
62930;BMP280;49036;42.782;23.108;2023-06-19T11:29:26;94068.97;;;29.71
62930;BMP280;49036;42.782;23.108;2023-06-19T11:32:13;94066.63;;;29.94
62930;BMP280;49036;42.782;23.108;2023-06-19T11:34:39;94076.13;;;30.44
62930;BMP280;49036;42.782;23.108;2023-06-19T11:37:15;94073.00;;;29.99
62930;BMP280;49036;42.782;23.108;2023-06-19T11:39:43;94069.91;;;30.25
62930;BMP280;49036;42.782;23.108;2023-06-19T11:42:09;94059.53;;;30.54
62930;BMP280;49036;42.782;23.108;2023-06-19T11:44:34;94071.16;;;30.40
62930;BMP280;49036;42.782;23.108;2023-06-19T11:47:00;94065.41;;;30.42
62930;BMP280;49036;42.782;23.108;2023-06-19T11:49:26;94059.78;;;30.93
62930;BMP280;49036;42.782;23.108;2023-06-19T11:51:51;94060.97;;;31.11
62930;BMP280;49036;42.782;23.108;2023-06-19T11:54:18;94054.03;;;31.42
62930;BMP280;49036;42.782;23.108;2023-06-19T11:56:43;94064.00;;;31.90
62930;BMP280;49036;42.782;23.108;2023-06-19T11:59:09;94070.34;;;31.05
62930;BMP280;49036;42.782;23.108;2023-06-19T12:01:36;94061.06;;;31.51
62930;BMP280;49036;42.782;23.108;2023-06-19T12:04:02;94066.28;;;31.39
62930;BMP280;49036;42.782;23.108;2023-06-19T12:06:30;94060.81;;;31.23
62930;BMP280;49036;42.782;23.108;2023-06-19T12:08:56;94067.25;;;30.70
62930;BMP280;49036;42.782;23.108;2023-06-19T12:11:53;94061.97;;;30.30
62930;BMP280;49036;42.782;23.108;2023-06-19T12:14:19;94061.94;;;30.93
62930;BMP280;49036;42.782;23.108;2023-06-19T12:17:02;94055.72;;;30.74
62930;BMP280;49036;42.782;23.108;2023-06-19T12:19:28;94051.84;;;31.47
62930;BMP280;49036;42.782;23.108;2023-06-19T12:21:53;94054.72;;;31.45
62930;BMP280;49036;42.782;23.108;2023-06-19T12:24:19;94044.06;;;32.21
62930;BMP280;49036;42.782;23.108;2023-06-19T12:26:44;94049.84;;;32.19
62930;BMP280;49036;42.782;23.108;2023-06-19T12:29:10;94057.06;;;32.18
62930;BMP280;49036;42.782;23.108;2023-06-19T12:31:36;94063.72;;;31.66
62930;BMP280;49036;42.782;23.108;2023-06-19T12:34:02;94048.59;;;31.69
62930;BMP280;49036;42.782;23.108;2023-06-19T12:36:28;94046.16;;;31.86
62930;BMP280;49036;42.782;23.108;2023-06-19T12:38:56;94055.91;;;31.13
62930;BMP280;49036;42.782;23.108;2023-06-19T12:41:22;94052.53;;;30.98
62930;BMP280;49036;42.782;23.108;2023-06-19T12:43:47;94051.63;;;32.00
62930;BMP280;49036;42.782;23.108;2023-06-19T12:46:13;94046.44;;;32.11
62930;BMP280;49036;42.782;23.108;2023-06-19T12:48:40;94045.16;;;31.59
62930;BMP280;49036;42.782;23.108;2023-06-19T12:51:06;94048.88;;;31.53
62930;BMP280;49036;42.782;23.108;2023-06-19T12:53:31;94047.31;;;32.01
62930;BMP280;49036;42.782;23.108;2023-06-19T12:55:57;94051.09;;;32.30
62930;BMP280;49036;42.782;23.108;2023-06-19T12:58:23;94048.84;;;32.70
62930;BMP280;49036;42.782;23.108;2023-06-19T13:00:48;94048.91;;;32.31
62930;BMP280;49036;42.782;23.108;2023-06-19T13:03:14;94041.53;;;32.03
62930;BMP280;49036;42.782;23.108;2023-06-19T13:05:39;94037.31;;;32.72
62930;BMP280;49036;42.782;23.108;2023-06-19T13:08:05;94040.84;;;32.39
62930;BMP280;49036;42.782;23.108;2023-06-19T13:10:30;94041.63;;;33.63
62930;BMP280;49036;42.782;23.108;2023-06-19T13:12:56;94034.03;;;32.90
62930;BMP280;49036;42.782;23.108;2023-06-19T13:15:24;94038.06;;;33.34
62930;BMP280;49036;42.782;23.108;2023-06-19T13:17:49;94045.41;;;32.96
62930;BMP280;49036;42.782;23.108;2023-06-19T13:20:15;94038.88;;;32.65
62930;BMP280;49036;42.782;23.108;2023-06-19T13:23:42;94027.16;;;32.75
62930;BMP280;49036;42.782;23.108;2023-06-19T13:26:07;94032.31;;;32.70
62930;BMP280;49036;42.782;23.108;2023-06-19T13:28:33;94038.09;;;33.01
62930;BMP280;49036;42.782;23.108;2023-06-19T13:30:59;94030.50;;;32.18
62930;BMP280;49036;42.782;23.108;2023-06-19T13:33:25;94034.84;;;32.17
62930;BMP280;49036;42.782;23.108;2023-06-19T13:35:51;94031.78;;;32.62
62930;BMP280;49036;42.782;23.108;2023-06-19T13:38:16;94025.81;;;33.33
62930;BMP280;49036;42.782;23.108;2023-06-19T13:40:42;94033.03;;;34.17
62930;BMP280;49036;42.782;23.108;2023-06-19T13:43:08;94025.94;;;33.58
62930;BMP280;49036;42.782;23.108;2023-06-19T13:45:33;94029.31;;;32.05
62930;BMP280;49036;42.782;23.108;2023-06-19T13:48:00;94027.13;;;32.07
62930;BMP280;49036;42.782;23.108;2023-06-19T13:50:26;94026.16;;;32.56
62930;BMP280;49036;42.782;23.108;2023-06-19T13:52:52;94028.25;;;32.57
62930;BMP280;49036;42.782;23.108;2023-06-19T13:55:17;94022.97;;;32.70
62930;BMP280;49036;42.782;23.108;2023-06-19T13:57:44;94025.66;;;33.68
62930;BMP280;49036;42.782;23.108;2023-06-19T14:00:11;94030.25;;;33.59
62930;BMP280;49036;42.782;23.108;2023-06-19T14:02:37;94019.00;;;33.76
62930;BMP280;49036;42.782;23.108;2023-06-19T14:05:05;94026.31;;;33.13
62930;BMP280;49036;42.782;23.108;2023-06-19T14:07:32;94019.84;;;33.99
62930;BMP280;49036;42.782;23.108;2023-06-19T14:09:57;94018.09;;;34.85
62930;BMP280;49036;42.782;23.108;2023-06-19T14:12:23;94017.09;;;33.93
62930;BMP280;49036;42.782;23.108;2023-06-19T14:14:48;94019.41;;;34.15
62930;BMP280;49036;42.782;23.108;2023-06-19T14:17:14;94028.28;;;34.32
62930;BMP280;49036;42.782;23.108;2023-06-19T14:19:39;94018.44;;;35.41